Time;durP1;ratioP1;P1;durP2;ratioP2;P2;SDS_P1;SDS_P2;PMS_P1;PMS_P2;Temp;Humidity;BMP_temperature;BMP_pressure;BME280_temperature;BME280_humidity;BME280_pressure;Samples;Min_cycle;Max_cycle;Signal;HPM_P1;HPM_P2
2021/03/20 00:01:49;;;;;;;0.80;0.80;;;;;;;-1.88;77.17;97559.59;299395;278;63009;-58
2021/03/20 00:06:54;;;;;;;0.80;0.80;;;;;;;-1.91;77.93;97555.50;299395;344;63005;-58
2021/03/20 00:11:58;;;;;;;0.90;0.90;;;;;;;-2.08;77.91;97565.62;299395;205;63009;-58
2021/03/20 00:16:59;;;;;;;0.90;0.90;;;;;;;-2.06;78.39;97563.59;299417;223;63004;-58
2021/03/20 00:22:00;;;;;;;0.80;0.80;;;;;;;-2.26;79.12;97561.84;299395;203;63009;-59
2021/03/20 00:27:02;;;;;;;0.80;0.80;;;;;;;-2.23;79.62;97567.59;299395;210;63000;-58
2021/03/20 00:32:04;;;;;;;0.80;0.80;;;;;;;-2.21;79.43;97570.06;299395;214;63008;-59
2021/03/20 00:37:06;;;;;;;0.80;0.80;;;;;;;-2.11;79.12;97560.72;299395;262;63004;-59
2021/03/20 00:42:08;;;;;;;0.80;0.80;;;;;;;-2.06;78.83;97563.59;299395;280;63009;-58
2021/03/20 00:47:08;;;;;;;0.80;0.80;;;;;;;-2.02;78.96;97564.03;299395;216;63004;-59
2021/03/20 00:52:10;;;;;;;0.88;0.88;;;;;;;-2.00;78.81;97561.16;299395;205;63009;-59
2021/03/20 00:57:11;;;;;;;0.80;0.80;;;;;;;-1.93;78.79;97562.84;299395;230;63005;-59
2021/03/20 01:02:12;;;;;;;0.80;0.80;;;;;;;-1.81;77.92;97565.78;299395;330;63009;-59
2021/03/20 01:07:12;;;;;;;0.80;0.80;;;;;;;-1.85;78.25;97564.53;299394;199;64005;-59
2021/03/20 01:12:13;;;;;;;0.80;0.80;;;;;;;-1.74;78.13;97574.59;299395;219;63019;-59
2021/03/20 01:17:14;;;;;;;0.80;0.80;;;;;;;-1.72;78.71;97569.87;299395;212;63005;-59
2021/03/20 01:22:15;;;;;;;0.80;0.80;;;;;;;-1.79;78.77;97563.75;299395;253;63009;-59
2021/03/20 01:27:16;;;;;;;0.90;0.90;;;;;;;-1.75;79.48;97570.31;299396;220;63005;-60
2021/03/20 01:32:18;;;;;;;0.80;0.80;;;;;;;-1.85;79.77;97572.50;299396;234;63008;-59
2021/03/20 01:37:19;;;;;;;0.90;0.90;;;;;;;-1.98;79.58;97575.91;299396;218;63004;-59
2021/03/20 01:42:20;;;;;;;0.80;0.80;;;;;;;-1.82;79.84;97575.59;299396;205;63009;-60
2021/03/20 01:47:21;;;;;;;0.80;0.80;;;;;;;-1.69;79.35;97572.16;299396;222;63004;-59
2021/03/20 01:52:32;;;;;;;0.80;0.80;;;;;;;-1.61;77.67;97579.97;299396;280;63009;-59
2021/03/20 01:57:39;;;;;;;0.80;0.80;;;;;;;-1.52;77.78;97589.41;299396;277;63005;-60
2021/03/20 02:02:40;;;;;;;0.80;0.80;;;;;;;-1.29;77.15;97581.09;299396;199;63009;-59
2021/03/20 02:07:41;;;;;;;0.90;0.90;;;;;;;-1.24;77.31;97583.97;299396;222;63004;-60
2021/03/20 02:12:45;;;;;;;0.80;0.80;;;;;;;-1.22;77.07;97587.25;299397;216;63009;-59
2021/03/20 02:18:18;;;;;;;0.80;0.80;;;;;;;-1.13;75.88;97585.22;299419;312;63005;-59
2021/03/20 02:24:00;;;;;;;0.80;0.80;;;;;;;-1.05;75.85;97582.38;299396;206;63009;-59
2021/03/20 02:30:13;;;;;;;0.80;0.80;;;;;;;-0.96;74.87;97581.16;299396;233;63004;-59
2021/03/20 02:36:03;;;;;;;0.80;0.80;;;;;;;-1.01;75.02;97584.41;299396;220;63009;-59
2021/03/20 02:41:37;;;;;;;0.80;0.80;;;;;;;-1.08;75.78;97578.28;299396;214;63005;-59
2021/03/20 02:46:57;;;;;;;0.80;0.80;;;;;;;-0.96;75.50;97578.50;299396;202;63008;-59
2021/03/20 02:52:17;;;;;;;0.80;0.80;;;;;;;-0.83;74.42;97570.53;299396;216;63004;-59
2021/03/20 02:57:31;;;;;;;0.80;0.80;;;;;;;-1.14;75.52;97564.94;299396;222;63009;-60
2021/03/20 03:02:34;;;;;;;0.80;0.80;;;;;;;-1.30;77.37;97570.63;299418;324;63005;-59
2021/03/20 03:07:58;;;;;;;0.80;0.80;;;;;;;-1.29;77.96;97564.28;299375;344;63009;-59
2021/03/20 03:13:05;;;;;;;0.80;0.80;;;;;;;-1.29;78.02;97564.28;299396;209;63005;-56
2021/03/20 03:18:38;;;;;;;0.80;0.80;;;;;;;-1.14;76.92;97564.94;299395;211;63009;-59
2021/03/20 03:23:40;;;;;;;0.80;0.80;;;;;;;-1.32;77.84;97570.84;299395;208;63008;-59
2021/03/20 03:28:47;;;;;;;0.80;0.80;;;;;;;-1.07;76.53;97568.44;299395;224;63009;-59
2021/03/20 03:34:16;;;;;;;0.80;0.80;;;;;;;-1.33;77.79;97573.69;299395;203;63005;-59
2021/03/20 03:39:31;;;;;;;0.90;0.90;;;;;;;-1.46;78.29;97575.31;299395;198;63008;-59
2021/03/20 03:44:32;;;;;;;1.57;1.47;;;;;;;-1.49;79.24;97597.00;299416;227;63004;-59
2021/03/20 03:49:33;;;;;;;0.98;0.98;;;;;;;-1.24;77.74;97599.13;299395;197;63009;-60
2021/03/20 03:54:34;;;;;;;0.80;0.80;;;;;;;-1.32;79.37;97602.78;299395;197;63005;-59
2021/03/20 04:00:17;;;;;;;0.80;0.80;;;;;;;-1.29;79.87;97610.38;299395;231;63011;-59
2021/03/20 04:05:51;;;;;;;0.80;0.80;;;;;;;-1.37;79.52;97603.38;299395;212;63005;-59
2021/03/20 04:10:58;;;;;;;0.80;0.80;;;;;;;-1.40;79.75;97611.78;299395;269;63009;-59
2021/03/20 04:16:31;;;;;;;0.80;0.80;;;;;;;-1.42;79.89;97608.50;299395;203;63004;-60
2021/03/20 04:21:49;;;;;;;0.80;0.80;;;;;;;-1.41;79.94;97604.81;299395;206;63009;-59
2021/03/20 04:27:02;;;;;;;0.80;0.80;;;;;;;-1.44;80.60;97589.25;299395;265;63005;-58
2021/03/20 04:32:11;;;;;;;0.80;0.80;;;;;;;-1.45;80.71;97600.91;299395;238;63009;-57
2021/03/20 04:37:18;;;;;;;0.80;0.80;;;;;;;-1.45;80.51;97606.25;299395;269;63004;-59
2021/03/20 04:42:29;;;;;;;0.80;0.80;;;;;;;-1.54;80.25;97620.72;299395;252;63009;-58
2021/03/20 04:47:34;;;;;;;0.80;0.80;;;;;;;-1.54;79.55;97620.72;299395;228;63005;-58
2021/03/20 04:52:41;;;;;;;0.88;0.88;;;;;;;-1.49;79.69;97631.63;299395;228;63009;-58
2021/03/20 04:57:54;;;;;;;0.80;0.80;;;;;;;-1.36;79.20;97628.97;299395;242;63005;-58
2021/03/20 05:03:33;;;;;;;0.80;0.80;;;;;;;-1.23;78.04;97627.41;299395;206;63009;-58
2021/03/20 05:08:51;;;;;;;0.90;0.90;;;;;;;-1.33;78.78;97633.09;299395;295;63008;-59
2021/03/20 05:14:11;;;;;;;0.80;0.80;;;;;;;-1.20;77.71;97621.69;299395;207;63004;-59
2021/03/20 05:19:12;;;;;;;0.80;0.80;;;;;;;-1.31;78.49;97627.56;299395;253;63009;-60
2021/03/20 05:24:17;;;;;;;0.80;0.80;;;;;;;-1.46;79.60;97627.72;299395;219;63005;-59
2021/03/20 05:29:21;;;;;;;;;;;;;;;-1.34;79.97;97626.12;299996;982;6004;-57
2021/03/20 05:34:34;;;;;;;0.90;0.90;;;;;;;-1.32;79.49;97629.41;299400;206;63009;-59
2021/03/20 05:39:35;;;;;;;0.90;0.90;;;;;;;-1.35;80.11;97635.12;299395;262;63005;-58
2021/03/20 05:45:10;;;;;;;0.90;0.90;;;;;;;-1.33;80.18;97637.59;299395;202;63009;-58
2021/03/20 05:50:37;;;;;;;0.80;0.80;;;;;;;-1.59;78.61;97641.78;299395;269;63004;-57
2021/03/20 05:55:45;;;;;;;0.80;0.80;;;;;;;-1.62;80.25;97650.16;299395;221;63009;-58
2021/03/20 06:01:43;;;;;;;0.85;0.85;;;;;;;-1.25;77.49;97650.75;299395;205;63004;-58
2021/03/20 06:07:21;;;;;;;1.02;1.02;;;;;;;-1.68;78.48;97664.25;299395;224;63009;-60
2021/03/20 06:12:52;;;;;;;0.90;0.90;;;;;;;-1.58;78.04;97666.56;299395;248;63005;-59
2021/03/20 06:18:44;;;;;;;0.90;0.90;;;;;;;-1.75;78.38;97677.56;299395;263;63019;-59
2021/03/20 06:24:17;;;;;;;0.90;0.90;;;;;;;-1.52;78.65;97676.44;299395;215;63007;-59
2021/03/20 06:29:33;;;;;;;0.80;0.80;;;;;;;-1.57;77.69;97678.84;299395;202;63009;-59
2021/03/20 06:34:48;;;;;;;0.80;0.80;;;;;;;-1.24;75.17;97679.00;299395;213;63005;-59
2021/03/20 06:40:14;;;;;;;;;;;;;;;-1.45;76.08;97694.09;299996;982;6024;-60
2021/03/20 06:45:33;;;;;;;0.90;0.90;;;;;;;-1.12;74.51;97709.38;299422;221;63008;-59
2021/03/20 06:50:43;;;;;;;0.88;0.88;;;;;;;-1.13;74.04;97703.22;299395;205;63004;-59
2021/03/20 06:55:48;;;;;;;0.80;0.80;;;;;;;-1.40;72.97;97702.31;299395;246;63009;-59
2021/03/20 07:00:49;;;;;;;0.80;0.80;;;;;;;-1.42;74.89;97716.81;299417;233;63005;-59
2021/03/20 07:06:30;;;;;;;0.80;0.80;;;;;;;-1.08;70.68;97718.62;299395;208;63009;-59
2021/03/20 07:11:41;;;;;;;0.80;0.80;;;;;;;-1.15;69.91;97715.09;299394;247;64005;-59
2021/03/20 07:16:56;;;;;;;0.80;0.80;;;;;;;-1.12;71.11;97720.84;299395;256;63009;-59
2021/03/20 07:22:07;;;;;;;0.90;0.90;;;;;;;-1.10;70.90;97723.31;299395;226;63004;-59
2021/03/20 07:27:35;;;;;;;0.80;0.80;;;;;;;-0.99;70.15;97725.41;299395;273;63009;-59
2021/03/20 07:32:40;;;;;;;0.80;0.80;;;;;;;-1.11;69.26;97722.50;299395;215;63005;-59
2021/03/20 07:37:41;;;;;;;0.90;0.90;;;;;;;-0.68;67.17;97722.22;299417;319;63008;-59
2021/03/20 07:42:42;;;;;;;0.80;0.80;;;;;;;-0.56;66.56;97733.12;299395;241;63004;-59
2021/03/20 07:48:13;;;;;;;0.80;0.80;;;;;;;-0.72;67.98;97732.47;299395;349;63009;-54
2021/03/20 07:53:18;;;;;;;0.80;0.80;;;;;;;-0.17;64.12;97722.50;299395;196;63004;-62
2021/03/20 07:58:23;;;;;;;0.90;0.90;;;;;;;-0.32;63.79;97726.38;299395;229;63009;-60
2021/03/20 08:03:33;;;;;;;0.80;0.80;;;;;;;-0.53;63.22;97738.88;299416;268;64014;-60
2021/03/20 08:08:35;;;;;;;0.93;0.93;;;;;;;-0.19;63.95;97750.41;299395;202;63009;-60
2021/03/20 08:13:57;;;;;;;0.80;0.80;;;;;;;-0.28;65.20;97765.78;299395;196;63004;-60
2021/03/20 08:18:59;;;;;;;0.80;0.80;;;;;;;-0.34;59.90;97761.25;299395;202;63009;-59
2021/03/20 08:24:24;;;;;;;0.80;0.80;;;;;;;-0.50;60.96;97761.63;299395;233;63005;-61
2021/03/20 08:30:34;;;;;;;0.80;0.80;;;;;;;-0.26;61.25;97746.91;299417;294;63008;-61
2021/03/20 08:36:09;;;;;;;0.90;0.90;;;;;;;-0.15;55.64;97749.81;299395;335;63004;-60
2021/03/20 08:41:39;;;;;;;0.80;0.80;;;;;;;-0.74;58.40;97766.50;299395;217;63005;-60
2021/03/20 08:47:28;;;;;;;0.80;0.80;;;;;;;-0.33;58.05;97778.88;299395;295;63009;-60
2021/03/20 08:52:50;;;;;;;0.80;0.80;;;;;;;-0.34;55.82;97772.72;299395;242;63004;-61
2021/03/20 08:58:41;;;;;;;0.80;0.80;;;;;;;0.27;57.14;97775.28;299395;330;63022;-60
2021/03/20 09:03:48;;;;;;;0.88;0.88;;;;;;;0.92;51.62;97765.50;299395;202;63005;-60
2021/03/20 09:08:52;;;;;;;1.27;1.27;;;;;;;0.55;50.73;97761.69;299395;206;63009;-61
2021/03/20 09:14:05;;;;;;;0.80;0.80;;;;;;;0.39;54.20;97778.13;299417;261;63004;-60
2021/03/20 09:19:33;;;;;;;0.80;0.80;;;;;;;0.83;51.96;97768.59;299395;244;63019;-53
2021/03/20 09:24:36;;;;;;;0.80;0.80;;;;;;;0.63;52.92;97780.16;299395;224;63005;-59
2021/03/20 09:29:57;;;;;;;0.80;0.80;;;;;;;1.01;52.13;97779.47;299395;209;63008;-60
2021/03/20 09:34:58;;;;;;;0.80;0.80;;;;;;;1.59;50.22;97764.19;299395;212;63004;-59
2021/03/20 09:39:59;;;;;;;0.80;0.80;;;;;;;2.10;46.14;97754.34;299395;217;63009;-58
2021/03/20 09:45:28;;;;;;;0.80;0.80;;;;;;;2.10;42.85;97743.66;299395;210;63001;-62
2021/03/20 09:50:35;;;;;;;0.80;0.80;;;;;;;1.73;46.01;97764.94;299395;205;63009;-58
2021/03/20 09:55:42;;;;;;;0.70;0.70;;;;;;;2.12;41.86;97744.25;299395;244;63005;-52
2021/03/20 10:01:10;;;;;;;0.80;0.80;;;;;;;2.30;42.83;97755.84;299395;257;63009;-58
2021/03/20 10:06:43;;;;;;;0.70;0.70;;;;;;;2.32;39.37;97742.25;299395;218;63004;-53
2021/03/20 10:12:19;;;;;;;0.80;0.80;;;;;;;2.46;40.39;97733.03;299395;243;63009;-57
2021/03/20 10:17:24;;;;;;;0.70;0.70;;;;;;;1.95;40.00;97742.12;299417;226;63005;-57
2021/03/20 10:22:32;;;;;;;0.75;0.75;;;;;;;2.16;40.25;97737.44;299395;203;63009;-56
2021/03/20 10:27:39;;;;;;;0.80;0.80;;;;;;;2.23;40.02;97738.19;299395;197;63008;-54
2021/03/20 10:32:54;;;;;;;0.80;0.80;;;;;;;1.84;39.04;97729.44;299395;205;63009;-57
2021/03/20 10:37:56;;;;;;;0.80;0.80;;;;;;;1.66;37.00;97738.22;299417;215;63005;-52
2021/03/20 10:43:01;;;;;;;0.80;0.80;;;;;;;1.82;37.95;97747.56;299395;230;63009;-52
2021/03/20 10:48:11;;;;;;;0.80;0.80;;;;;;;1.83;40.80;97748.38;299395;269;63005;-52
2021/03/20 10:53:27;;;;;;;0.80;0.80;;;;;;;2.07;39.48;97744.13;299395;197;63009;-58
2021/03/20 10:58:41;;;;;;;0.73;0.73;;;;;;;1.96;39.80;97738.41;299395;218;63004;-53
2021/03/20 11:03:46;;;;;;;0.80;0.80;;;;;;;1.78;38.05;97724.94;299479;249;125009;-57
2021/03/20 11:09:03;;;;;;;0.73;0.73;;;;;;;1.93;40.45;97744.19;299395;238;63005;-57
2021/03/20 11:14:20;;;;;;;0.80;0.80;;;;;;;1.89;39.48;97743.00;299395;234;63008;-57
2021/03/20 11:19:36;;;;;;;0.80;0.80;;;;;;;1.48;39.36;97745.31;299395;252;63004;-62
2021/03/20 11:24:37;;;;;;;0.80;0.80;;;;;;;1.31;39.18;97740.47;299395;227;63009;-58
2021/03/20 11:29:39;;;;;;;0.80;0.80;;;;;;;1.38;40.28;97751.16;299394;221;64005;-57
2021/03/20 11:34:42;;;;;;;0.80;0.80;;;;;;;1.77;38.16;97739.38;299395;236;63018;-58
2021/03/20 11:39:43;;;;;;;0.80;0.80;;;;;;;1.33;40.60;97727.72;299395;243;63005;-58
2021/03/20 11:44:49;;;;;;;0.80;0.80;;;;;;;1.79;39.43;97733.78;299395;256;63009;-61
2021/03/20 11:49:53;;;;;;;1.92;1.87;;;;;;;1.91;39.97;97735.56;299395;260;63004;-57
2021/03/20 11:55:06;;;;;;;0.80;0.80;;;;;;;1.92;37.12;97721.16;299417;218;63009;-61
2021/03/20 12:00:33;;;;;;;0.80;0.80;;;;;;;1.55;42.03;97719.34;299395;203;63005;-60
2021/03/20 12:05:38;;;;;;;0.70;0.70;;;;;;;1.90;39.98;97712.53;299395;245;63004;-59
2021/03/20 12:10:54;;;;;;;0.80;0.80;;;;;;;1.71;41.89;97708.16;299395;218;63009;-59
2021/03/20 12:15:56;;;;;;;0.80;0.80;;;;;;;1.82;39.38;97704.75;299395;210;63005;-57
2021/03/20 12:21:07;;;;;;;0.80;0.80;;;;;;;1.81;39.46;97721.03;299395;218;63008;-58
2021/03/20 12:26:19;;;;;;;0.80;0.80;;;;;;;1.89;39.05;97708.19;299395;220;63004;-60
2021/03/20 12:31:29;;;;;;;0.90;0.90;;;;;;;2.07;41.92;97717.34;299395;260;63009;-57
2021/03/20 12:36:43;;;;;;;0.90;0.90;;;;;;;2.07;42.60;97706.63;299395;247;63005;-58
2021/03/20 12:41:48;;;;;;;0.80;0.80;;;;;;;2.44;41.63;97689.56;299395;204;63009;-59
2021/03/20 12:46:56;;;;;;;0.77;0.77;;;;;;;2.51;42.06;97692.19;299395;202;63005;-59
2021/03/20 12:52:03;;;;;;;0.95;0.95;;;;;;;2.65;38.87;97674.94;299395;222;63009;-59
2021/03/20 12:57:06;;;;;;;0.80;0.80;;;;;;;2.33;41.55;97682.28;299395;218;63004;-58
2021/03/20 13:02:08;;;;;;;0.80;0.80;;;;;;;2.13;40.73;97678.97;299395;213;63009;-58
2021/03/20 13:07:10;;;;;;;0.80;0.80;;;;;;;2.27;40.32;97683.16;299395;219;63005;-60
2021/03/20 13:12:12;;;;;;;0.80;0.80;;;;;;;2.35;39.73;97678.34;299395;249;63018;-54
2021/03/20 13:17:15;;;;;;;0.80;0.80;;;;;;;2.30;41.18;97667.47;299395;224;63004;-59
2021/03/20 13:22:16;;;;;;;0.80;0.80;;;;;;;2.48;40.51;97660.50;299395;203;63019;-54
2021/03/20 13:27:17;;;;;;;0.80;0.80;;;;;;;2.76;41.11;97654.63;299395;197;63004;-60
2021/03/20 13:32:19;;;;;;;0.80;0.80;;;;;;;3.11;40.06;97658.31;299395;304;63009;-65
2021/03/20 13:37:20;;;;;;;1.02;1.00;;;;;;;2.91;39.40;97649.69;299394;209;64009;-66
2021/03/20 13:42:21;;;;;;;1.05;1.05;;;;;;;2.79;39.44;97649.62;299395;345;63008;-61
2021/03/20 13:47:22;;;;;;;0.80;0.80;;;;;;;2.62;39.77;97645.91;299395;218;63004;-61
2021/03/20 13:52:23;;;;;;;0.80;0.80;;;;;;;2.38;41.03;97663.69;299395;204;63009;-59
2021/03/20 13:57:24;;;;;;;0.80;0.80;;;;;;;2.92;39.26;97651.31;299395;202;63004;-54
2021/03/20 14:02:26;;;;;;;0.90;0.90;;;;;;;3.15;38.53;97656.78;299396;198;63009;-58
2021/03/20 14:07:36;;;;;;;0.80;0.80;;;;;;;3.07;37.48;97643.72;299396;238;63005;-56
2021/03/20 14:12:37;;;;;;;0.90;0.90;;;;;;;3.53;38.58;97658.31;299396;308;63009;-56
2021/03/20 14:17:38;;;;;;;3.92;3.65;;;;;;;3.10;37.80;97654.00;299396;228;63004;-62
2021/03/20 14:22:39;;;;;;;0.98;0.98;;;;;;;2.50;38.03;97651.19;299396;315;63009;-56
2021/03/20 14:27:40;;;;;;;0.80;0.80;;;;;;;2.47;39.27;97665.03;299396;231;63005;-57
2021/03/20 14:32:41;;;;;;;0.80;0.80;;;;;;;2.40;40.06;97660.81;299396;227;63009;-56
2021/03/20 14:37:43;;;;;;;0.80;0.80;;;;;;;2.54;39.22;97654.25;299396;216;63005;-58
2021/03/20 14:42:44;;;;;;;0.80;0.80;;;;;;;2.58;38.89;97656.25;299396;226;63009;-56
2021/03/20 14:47:45;;;;;;;0.80;0.80;;;;;;;2.44;39.83;97670.00;299397;207;63004;-56
2021/03/20 14:52:47;;;;;;;2.58;2.47;;;;;;;2.36;40.40;97676.50;299397;230;63009;-56
2021/03/20 14:57:48;;;;;;;0.80;0.80;;;;;;;2.54;37.59;97655.06;299396;201;63005;-57
2021/03/20 15:02:49;;;;;;;0.70;0.70;;;;;;;2.43;37.95;97646.94;299396;254;63009;-61
2021/03/20 15:07:51;;;;;;;0.80;0.80;;;;;;;2.28;38.31;97653.50;299396;249;63005;-56
2021/03/20 15:12:54;;;;;;;1.20;1.10;;;;;;;2.13;38.11;97639.63;299396;197;63009;-55
2021/03/20 15:17:56;;;;;;;0.80;0.80;;;;;;;2.09;39.37;97634.94;299396;206;63004;-55
2021/03/20 15:22:57;;;;;;;1.42;1.37;;;;;;;2.31;37.10;97628.13;299396;218;63009;-57
2021/03/20 15:27:58;;;;;;;0.80;0.80;;;;;;;1.95;38.67;97629.72;299396;268;63001;-55
2021/03/20 15:32:59;;;;;;;0.80;0.80;;;;;;;1.99;38.01;97635.47;299396;214;63009;-56
2021/03/20 15:38:00;;;;;;;0.90;0.90;;;;;;;1.94;39.89;97649.50;299397;283;63005;-57
2021/03/20 15:43:03;;;;;;;0.80;0.80;;;;;;;2.08;38.60;97636.00;299397;243;63021;-56
2021/03/20 15:48:05;;;;;;;0.80;0.80;;;;;;;2.09;37.07;97634.94;299395;198;63004;-55
2021/03/20 15:53:07;;;;;;;0.70;0.70;;;;;;;1.89;37.56;97635.94;299395;230;63009;-55
2021/03/20 15:58:10;;;;;;;0.70;0.70;;;;;;;1.62;40.39;97651.41;299395;220;63005;-55
2021/03/20 16:03:12;;;;;;;0.80;0.80;;;;;;;1.72;40.39;97644.75;299395;242;63008;-55
2021/03/20 16:08:13;;;;;;;0.80;0.80;;;;;;;1.89;38.97;97641.28;299395;255;63004;-56
2021/03/20 16:13:14;;;;;;;0.80;0.80;;;;;;;2.09;38.51;97624.22;299395;204;63009;-55
2021/03/20 16:18:16;;;;;;;0.80;0.80;;;;;;;1.91;39.19;97628.53;299395;215;63004;-56
2021/03/20 16:23:20;;;;;;;0.80;0.80;;;;;;;1.95;37.93;97632.41;299395;212;63009;-55
2021/03/20 16:28:26;;;;;;;0.80;0.80;;;;;;;1.63;40.67;97633.50;299417;202;63005;-56
2021/03/20 16:33:30;;;;;;;0.80;0.80;;;;;;;1.71;40.71;97633.22;299395;243;63004;-55
2021/03/20 16:38:37;;;;;;;0.80;0.80;;;;;;;1.78;40.14;97620.59;299417;215;63000;-56
2021/03/20 16:43:38;;;;;;;0.80;0.80;;;;;;;1.60;40.67;97628.59;299395;197;63005;-56
2021/03/20 16:48:39;;;;;;;0.70;0.70;;;;;;;1.80;39.17;97615.84;299394;216;64000;-57
2021/03/20 16:53:41;;;;;;;0.80;0.80;;;;;;;1.41;39.04;97618.84;299395;260;63019;-56
2021/03/20 16:58:42;;;;;;;0.70;0.70;;;;;;;1.38;41.06;97627.31;299395;252;63000;-56
2021/03/20 17:03:43;;;;;;;0.80;0.80;;;;;;;1.45;42.46;97633.41;299395;230;63004;-55
2021/03/20 17:08:46;;;;;;;0.70;0.70;;;;;;;1.29;42.87;97630.25;299395;223;63000;-56
2021/03/20 17:13:48;;;;;;;0.70;0.70;;;;;;;1.38;42.56;97630.00;299395;222;63005;-55
2021/03/20 17:18:50;;;;;;;0.80;0.80;;;;;;;1.14;42.24;97626.22;299395;219;63000;-55
2021/03/20 17:23:50;;;;;;;0.80;0.80;;;;;;;1.30;42.09;97634.56;299395;237;63004;-56
2021/03/20 17:28:51;;;;;;;0.80;0.80;;;;;;;1.13;43.11;97640.63;299395;224;63000;-56
2021/03/20 17:33:52;;;;;;;0.80;0.80;;;;;;;1.00;43.57;97647.69;299395;210;63005;-55
2021/03/20 17:38:54;;;;;;;0.80;0.80;;;;;;;1.02;45.11;97654.69;299395;270;63000;-56
2021/03/20 17:43:59;;;;;;;0.80;0.80;;;;;;;1.08;45.88;97657.28;299395;258;63005;-56
2021/03/20 17:49:01;;;;;;;0.80;0.80;;;;;;;0.98;46.93;97659.63;299395;238;63001;-55
2021/03/20 17:54:02;;;;;;;0.80;0.80;;;;;;;0.95;48.81;97660.06;299395;257;63004;-54
2021/03/20 17:59:03;;;;;;;0.80;0.80;;;;;;;0.92;49.10;97665.81;299395;244;63000;-55
2021/03/20 18:04:05;;;;;;;0.73;0.73;;;;;;;0.91;49.64;97664.19;299395;212;63005;-56
2021/03/20 18:09:09;;;;;;;0.80;0.80;;;;;;;0.86;48.64;97662.13;299395;227;63000;-56
2021/03/20 18:14:12;;;;;;;0.80;0.80;;;;;;;0.78;48.27;97664.22;299395;204;63005;-56
2021/03/20 18:19:13;;;;;;;0.80;0.80;;;;;;;0.76;47.76;97650.25;299395;239;63005;-57
2021/03/20 18:24:14;;;;;;;0.80;0.80;;;;;;;0.76;47.04;97644.91;299395;218;63009;-56
2021/03/20 18:29:15;;;;;;;0.80;0.80;;;;;;;0.81;48.22;97642.44;299395;196;63005;-57
2021/03/20 18:34:17;;;;;;;0.80;0.80;;;;;;;0.80;48.26;97646.13;299395;226;63009;-58
2021/03/20 18:39:19;;;;;;;0.85;0.85;;;;;;;0.83;48.58;97651.06;299395;239;63004;-57
2021/03/20 18:44:20;;;;;;;0.80;0.80;;;;;;;0.80;48.46;97654.97;299395;214;63009;-57
2021/03/20 18:49:22;;;;;;;0.80;0.80;;;;;;;0.87;47.15;97657.62;299395;227;63005;-57
2021/03/20 18:54:25;;;;;;;0.80;0.80;;;;;;;0.93;47.34;97643.41;299395;242;63009;-56
2021/03/20 18:59:26;;;;;;;0.90;0.90;;;;;;;0.92;46.78;97639.91;299395;265;63005;-57
2021/03/20 19:04:27;;;;;;;0.80;0.80;;;;;;;0.90;46.94;97635.81;299395;225;63009;-56
2021/03/20 19:09:28;;;;;;;0.80;0.80;;;;;;;0.86;46.96;97630.06;299395;226;63004;-56
2021/03/20 19:14:29;;;;;;;0.80;0.80;;;;;;;0.85;46.75;97635.63;299395;248;63009;-56
2021/03/20 19:19:30;;;;;;;0.80;0.80;;;;;;;0.85;46.03;97625.75;299395;197;63005;-58
2021/03/20 19:24:31;;;;;;;0.80;0.80;;;;;;;0.86;46.25;97629.25;299395;237;63017;-55
2021/03/20 19:29:32;;;;;;;0.80;0.80;;;;;;;0.83;45.39;97619.00;299395;241;63004;-57
2021/03/20 19:34:33;;;;;;;0.80;0.80;;;;;;;0.89;44.54;97623.50;299395;222;63009;-56
2021/03/20 19:39:34;;;;;;;0.80;0.80;;;;;;;0.84;45.63;97625.97;299395;202;63004;-56
2021/03/20 19:44:35;;;;;;;0.80;0.80;;;;;;;0.83;45.75;97613.66;299395;213;63009;-57
2021/03/20 19:49:37;;;;;;;0.80;0.80;;;;;;;0.84;45.92;97626.78;299395;255;63005;-57
2021/03/20 19:54:38;;;;;;;0.80;0.80;;;;;;;0.80;47.66;97624.75;299395;228;63009;-56
2021/03/20 19:59:39;;;;;;;0.80;0.80;;;;;;;0.80;48.87;97619.41;299395;248;63005;-57
2021/03/20 20:04:40;;;;;;;0.80;0.80;;;;;;;0.81;46.53;97608.53;299395;200;63009;-57
2021/03/20 20:09:41;;;;;;;0.70;0.70;;;;;;;0.83;45.62;97613.66;299395;244;63004;-56
2021/03/20 20:14:46;;;;;;;0.70;0.70;;;;;;;0.81;45.19;97615.72;299395;242;63009;-56
2021/03/20 20:19:48;;;;;;;0.80;0.80;;;;;;;0.75;46.97;97622.72;299395;240;63005;-57
2021/03/20 20:24:53;;;;;;;0.80;0.80;;;;;;;0.74;46.47;97625.59;299395;234;63008;-57
2021/03/20 20:29:54;;;;;;;;;;;;;;;0.75;49.31;97645.94;299996;983;6000;-57
2021/03/20 20:34:56;;;;;;;0.80;0.80;;;;;;;0.70;47.65;97624.38;299400;228;63005;-57
2021/03/20 20:39:57;;;;;;;0.80;0.80;;;;;;;0.75;46.89;97620.06;299395;197;63008;-56
2021/03/20 20:44:58;;;;;;;0.80;0.80;;;;;;;0.71;48.22;97637.53;299395;198;63004;-58
2021/03/20 20:49:59;;;;;;;0.80;0.80;;;;;;;0.65;48.49;97633.88;299395;207;63009;-57
2021/03/20 20:55:00;;;;;;;0.80;0.80;;;;;;;0.62;46.90;97623.63;299395;241;63004;-57
2021/03/20 21:00:06;;;;;;;0.80;0.80;;;;;;;0.65;48.56;97633.88;299395;217;63009;-57
2021/03/20 21:05:08;;;;;;;0.80;0.80;;;;;;;0.66;48.57;97635.53;299395;248;63005;-57
2021/03/20 21:10:10;;;;;;;0.80;0.80;;;;;;;0.69;49.91;97636.94;299395;233;63008;-57
2021/03/20 21:15:13;;;;;;;0.80;0.80;;;;;;;0.65;50.36;97644.56;299395;213;63004;-56
2021/03/20 21:20:18;;;;;;;0.80;0.80;;;;;;;0.65;48.56;97633.88;299395;216;63009;-57
2021/03/20 21:25:21;;;;;;;0.80;0.80;;;;;;;0.64;48.32;97629.56;299395;211;63005;-56
2021/03/20 21:30:24;;;;;;;0.80;0.80;;;;;;;0.63;47.53;97627.94;299395;217;63009;-53
2021/03/20 21:35:26;;;;;;;0.80;0.80;;;;;;;0.68;47.53;97623.81;299395;226;63005;-56
2021/03/20 21:40:36;;;;;;;0.80;0.80;;;;;;;0.61;47.76;97621.16;299395;238;63009;-55
2021/03/20 21:45:39;;;;;;;0.70;0.70;;;;;;;0.60;48.94;97624.84;299395;204;63004;-57
2021/03/20 21:50:42;;;;;;;0.80;0.80;;;;;;;0.57;48.89;97630.63;299395;203;63009;-57
2021/03/20 21:55:44;;;;;;;0.80;0.80;;;;;;;0.53;48.08;97616.88;299395;268;63005;-56
2021/03/20 22:00:49;;;;;;;0.80;0.80;;;;;;;0.57;48.46;97609.25;299395;203;63009;-57
2021/03/20 22:05:50;;;;;;;0.80;0.80;;;;;;;0.52;47.81;97609.88;299395;204;63004;-56
2021/03/20 22:10:53;;;;;;;0.80;0.80;;;;;;;0.54;48.43;97610.50;299395;243;63009;-53
2021/03/20 22:15:54;;;;;;;0.80;0.80;;;;;;;0.48;48.76;97605.19;299395;222;63004;-53
2021/03/20 22:20:56;;;;;;;0.80;0.80;;;;;;;0.52;48.40;97601.88;299395;196;63004;-56
2021/03/20 22:25:59;;;;;;;0.90;0.90;;;;;;;0.66;48.61;97608.81;299395;216;63005;-56
2021/03/20 22:31:10;;;;;;;0.80;0.80;;;;;;;0.77;46.50;97590.47;299395;227;63008;-56
2021/03/20 22:36:14;;;;;;;0.80;0.80;;;;;;;0.63;47.32;97593.22;299395;221;63004;-55
2021/03/20 22:41:16;;;;;;;0.80;0.80;;;;;;;0.55;47.73;97580.09;299417;209;63009;-56
2021/03/20 22:46:18;;;;;;;0.80;0.80;;;;;;;0.46;49.03;97575.19;299395;206;63004;-55
2021/03/20 22:51:18;;;;;;;0.80;0.80;;;;;;;0.41;48.63;97567.81;299395;246;63009;-55
2021/03/20 22:56:19;;;;;;;0.80;0.80;;;;;;;0.39;49.10;97574.41;299395;208;63005;-56
2021/03/20 23:01:20;;;;;;;0.80;0.80;;;;;;;0.42;48.50;97564.13;299395;197;63008;-55
2021/03/20 23:06:23;;;;;;;0.80;0.80;;;;;;;0.38;49.33;97573.59;299395;258;63004;-55
2021/03/20 23:11:33;;;;;;;0.80;0.80;;;;;;;0.38;48.74;97562.91;299395;260;63009;-55
2021/03/20 23:16:37;;;;;;;0.80;0.80;;;;;;;0.38;49.07;97562.09;299395;229;63010;-55
2021/03/20 23:21:39;;;;;;;0.80;0.80;;;;;;;0.45;47.44;97558.34;299417;202;63009;-56
2021/03/20 23:26:46;;;;;;;0.80;0.80;;;;;;;0.50;48.56;97563.06;299395;259;63005;-56
2021/03/20 23:31:47;;;;;;;0.80;0.80;;;;;;;0.59;48.68;97565.28;299395;258;63009;-55
2021/03/20 23:36:50;;;;;;;0.80;0.80;;;;;;;0.50;48.38;97561.22;299395;212;63008;-56
2021/03/20 23:41:51;;;;;;;0.80;0.80;;;;;;;0.60;47.35;97550.91;299395;222;63009;-56
2021/03/20 23:46:53;;;;;;;0.80;0.80;;;;;;;0.49;48.78;97554.25;299395;219;63005;-55
2021/03/20 23:51:54;;;;;;;0.80;0.80;;;;;;;0.47;49.48;97548.28;299395;276;63009;-55
2021/03/20 23:56:55;;;;;;;0.80;0.80;;;;;;;0.47;48.99;97540.28;299395;288;63005;-56
